Time;durP1;ratioP1;P1;durP2;ratioP2;P2;SDS_P1;SDS_P2;PMS_P1;PMS_P2;Temp;Humidity;BMP_temperature;BMP_pressure;BME280_temperature;BME280_humidity;BME280_pressure;Samples;Min_cycle;Max_cycle;Signal;HPM_P1;HPM_P2
2023/07/08 00:01:18;;;;;;;4.93;4.28;;;22.80;56.30;;;;;;5032658;28;20199;-72
2023/07/08 00:03:44;;;;;;;4.65;4.25;;;22.80;56.20;;;;;;5030101;28;20235;-72
2023/07/08 00:06:23;;;;;;;5.95;4.80;;;22.80;56.10;;;;;;5024785;28;20185;-74
2023/07/08 00:08:49;;;;;;;5.13;4.43;;;22.80;56.10;;;;;;5016990;28;20195;-73
2023/07/08 00:11:18;;;;;;;6.43;4.40;;;22.80;56.10;;;;;;5041504;28;20647;-73
2023/07/08 00:13:44;;;;;;;5.25;4.45;;;22.80;56.20;;;;;;5033060;28;20215;-71
2023/07/08 00:16:18;;;;;;;5.68;4.75;;;22.80;56.10;;;;;;5022550;28;20207;-72
2023/07/08 00:18:45;;;;;;;5.20;4.15;;;22.80;56.20;;;;;;5023455;28;20214;-72
2023/07/08 00:21:15;;;;;;;6.30;5.15;;;22.70;56.10;;;;;;5034047;28;20259;-71
2023/07/08 00:23:50;;;;;;;4.95;4.35;;;22.80;56.20;;;;;;5016391;28;20188;-73
2023/07/08 00:26:23;;;;;;;5.18;4.32;;;22.70;56.10;;;;;;5032697;28;20194;-73
2023/07/08 00:28:50;;;;;;;5.32;4.45;;;22.80;56.30;;;;;;5032897;28;20222;-73
2023/07/08 00:31:16;;;;;;;5.57;4.50;;;22.80;56.30;;;;;;5019346;28;20180;-71
2023/07/08 00:33:42;;;;;;;5.10;4.53;;;22.80;56.40;;;;;;5029373;28;20223;-73
2023/07/08 00:36:13;;;;;;;5.40;4.55;;;22.80;56.40;;;;;;5013001;28;20200;-73
2023/07/08 00:38:44;;;;;;;5.15;4.60;;;22.80;56.40;;;;;;5038851;28;20218;-73
2023/07/08 00:41:29;;;;;;;4.75;4.35;;;22.70;56.30;;;;;;5017771;28;20179;-72
2023/07/08 00:43:57;;;;;;;5.40;4.90;;;22.80;56.30;;;;;;5012623;28;20207;-73
2023/07/08 00:46:29;;;;;;;5.35;4.75;;;22.80;56.20;;;;;;5013093;28;20192;-71
2023/07/08 00:49:06;;;;;;;5.03;4.53;;;22.70;56.20;;;;;;5053900;28;20182;-72
2023/07/08 00:51:33;;;;;;;5.10;4.60;;;22.70;56.30;;;;;;5016090;28;20302;-71
2023/07/08 00:53:59;;;;;;;6.10;4.85;;;22.70;56.20;;;;;;5048859;28;20206;-73
2023/07/08 00:56:57;;;;;;;5.40;4.32;;;22.70;56.20;;;;;;5035708;28;20183;-73
2023/07/08 00:59:50;;;;;;;5.00;4.47;;;22.70;56.30;;;;;;5024365;28;20203;-72
2023/07/08 01:02:22;;;;;;;5.05;4.55;;;22.70;56.30;;;;;;5015924;28;20202;-73
2023/07/08 01:05:28;;;;;;;4.97;4.47;;;22.80;56.30;;;;;;5039446;28;20203;-72
2023/07/08 01:08:01;;;;;;;4.78;4.35;;;22.70;56.30;;;;;;4996241;28;20217;-73
2023/07/08 01:11:03;;;;;;;6.28;4.45;;;22.70;56.20;;;;;;4987488;28;20235;-73
2023/07/08 01:13:38;;;;;;;4.65;4.10;;;22.70;56.40;;;;;;4995987;28;20191;-73
2023/07/08 01:16:06;;;;;;;4.55;4.15;;;22.80;56.50;;;;;;5022436;28;20179;-73
2023/07/08 01:18:33;;;;;;;6.60;4.25;;;22.70;56.30;;;;;;5035355;28;20242;-73
2023/07/08 01:21:37;;;;;;;5.10;4.50;;;22.70;56.30;;;;;;5009387;28;20187;-72
2023/07/08 01:24:11;;;;;;;4.65;4.15;;;22.70;56.30;;;;;;5028845;28;20212;-73
2023/07/08 01:26:43;;;;;;;5.18;4.68;;;22.70;56.30;;;;;;5015209;28;20192;-73
2023/07/08 01:29:10;;;;;;;5.03;4.53;;;22.80;56.40;;;;;;5031589;28;20277;-73
2023/07/08 01:31:37;;;;;;;5.10;4.60;;;22.70;56.60;;;;;;5039801;28;20274;-73
2023/07/08 01:34:05;;;;;;;5.43;4.53;;;22.70;56.50;;;;;;5023246;28;20253;-73
2023/07/08 01:36:42;;;;;;;4.90;4.47;;;22.70;56.60;;;;;;5039847;28;20539;-73
2023/07/08 01:39:17;;;;;;;4.50;4.10;;;22.70;56.50;;;;;;5031719;28;20226;-73
2023/07/08 01:41:44;;;;;;;5.60;4.82;;;22.70;56.40;;;;;;5029625;28;20182;-73
2023/07/08 01:44:35;;;;;;;4.95;4.45;;;22.70;56.30;;;;;;5017994;28;20294;-73
2023/07/08 01:47:18;;;;;;;4.32;3.83;;;22.70;56.30;;;;;;5043018;28;20187;-73
2023/07/08 01:49:47;;;;;;;4.85;4.35;;;22.70;56.40;;;;;;5021109;28;20661;-72
2023/07/08 01:52:16;;;;;;;5.65;4.63;;;22.70;56.40;;;;;;5033014;28;20246;-73
2023/07/08 01:54:42;;;;;;;5.25;4.72;;;22.70;56.40;;;;;;5014092;28;20229;-73
2023/07/08 01:57:08;;;;;;;5.22;4.00;;;22.70;56.50;;;;;;5037312;28;20282;-72
2023/07/08 01:59:34;;;;;;;5.05;4.35;;;22.70;56.50;;;;;;5014854;28;20212;-72
2023/07/08 02:02:00;;;;;;;5.05;4.35;;;22.70;56.60;;;;;;5031327;28;20197;-72
2023/07/08 02:04:28;;;;;;;5.60;5.00;;;22.70;56.60;;;;;;5018221;28;20229;-73
2023/07/08 02:06:55;;;;;;;4.95;4.45;;;22.70;56.60;;;;;;5034671;28;20174;-72
2023/07/08 02:09:21;;;;;;;5.85;4.60;;;22.70;56.60;;;;;;5039597;28;20195;-73
2023/07/08 02:11:47;;;;;;;5.95;4.55;;;22.70;56.60;;;;;;5029150;28;20226;-72
2023/07/08 02:14:13;;;;;;;5.65;4.50;;;22.70;56.40;;;;;;5015623;28;20238;-73
2023/07/08 02:16:39;;;;;;;5.07;4.45;;;22.70;56.50;;;;;;5022269;28;20192;-73
2023/07/08 02:19:05;;;;;;;5.07;4.32;;;22.70;56.50;;;;;;5028134;28;20218;-73
2023/07/08 02:21:31;;;;;;;5.32;4.50;;;22.70;56.50;;;;;;5018567;28;20211;-73
2023/07/08 02:23:57;;;;;;;5.50;4.80;;;22.70;56.40;;;;;;5010309;28;20211;-73
2023/07/08 02:26:23;;;;;;;5.00;4.50;;;22.70;56.50;;;;;;5030537;28;20255;-74
2023/07/08 02:28:49;;;;;;;5.65;4.72;;;22.70;56.60;;;;;;5038052;28;20191;-73
2023/07/08 02:31:15;;;;;;;4.80;4.38;;;22.70;56.50;;;;;;5013076;28;20193;-72
2023/07/08 02:33:41;;;;;;;5.30;4.25;;;22.70;56.60;;;;;;5026342;28;20329;-73
2023/07/08 02:36:07;;;;;;;5.00;4.50;;;22.70;56.50;;;;;;5016641;28;20207;-74
2023/07/08 02:38:33;;;;;;;6.13;5.15;;;22.70;56.60;;;;;;5018250;28;20225;-73
2023/07/08 02:41:00;;;;;;;5.63;5.03;;;22.70;56.60;;;;;;5014009;28;20187;-74
2023/07/08 02:43:26;;;;;;;4.93;4.35;;;22.70;56.60;;;;;;5013247;28;20237;-74
2023/07/08 02:45:52;;;;;;;5.07;4.57;;;22.70;56.60;;;;;;5026779;28;20196;-74
2023/07/08 02:48:19;;;;;;;5.57;4.68;;;22.70;56.60;;;;;;5022925;28;20277;-74
2023/07/08 02:50:45;;;;;;;4.95;4.45;;;22.70;56.60;;;;;;5032100;28;20196;-73
2023/07/08 02:53:12;;;;;;;4.72;4.28;;;22.70;56.70;;;;;;5011502;28;20287;-73
2023/07/08 02:55:39;;;;;;;4.95;4.32;;;22.70;56.60;;;;;;5030300;28;20226;-73
2023/07/08 02:58:05;;;;;;;5.13;4.32;;;22.70;57.20;;;;;;5027417;28;20214;-73
2023/07/08 03:00:31;;;;;;;5.40;4.80;;;22.70;56.80;;;;;;5027774;28;20212;-73
2023/07/08 03:02:57;;;;;;;6.70;4.80;;;22.70;56.80;;;;;;5009874;28;20183;-73
2023/07/08 03:05:23;;;;;;;5.28;4.65;;;22.70;56.80;;;;;;5013916;28;20709;-73
2023/07/08 03:07:49;;;;;;;4.93;4.43;;;22.70;56.80;;;;;;5025523;28;20221;-73
2023/07/08 03:10:15;;;;;;;5.40;4.30;;;22.70;56.70;;;;;;5024161;28;20191;-73
2023/07/08 03:12:40;;;;;;;5.63;4.55;;;22.70;56.70;;;;;;5024886;28;20278;-73
2023/07/08 03:15:07;;;;;;;5.05;4.28;;;22.70;56.80;;;;;;5017745;28;20203;-73
2023/07/08 03:17:32;;;;;;;4.53;4.03;;;22.70;56.80;;;;;;5046746;28;20190;-73
2023/07/08 03:19:58;;;;;;;5.15;4.65;;;22.70;56.70;;;;;;5022138;28;20222;-73
2023/07/08 03:22:24;;;;;;;5.38;4.85;;;22.60;56.70;;;;;;5026065;28;20179;-74
2023/07/08 03:24:50;;;;;;;5.35;4.85;;;22.70;56.90;;;;;;5025862;28;20211;-73
2023/07/08 03:27:19;;;;;;;5.70;4.22;;;22.70;56.80;;;;;;5020049;28;20183;-73
2023/07/08 03:29:48;;;;;;;5.55;4.40;;;22.70;56.80;;;;;;5029746;28;20676;-73
2023/07/08 03:32:14;;;;;;;4.40;3.75;;;22.70;56.90;;;;;;5019526;28;20187;-73
2023/07/08 03:34:41;;;;;;;6.43;4.80;;;22.70;56.90;;;;;;5017338;28;20203;-72
2023/07/08 03:37:09;;;;;;;4.65;4.13;;;22.60;56.80;;;;;;5047546;28;20199;-73
2023/07/08 03:39:35;;;;;;;5.18;3.95;;;22.60;56.90;;;;;;5034165;28;20222;-73
2023/07/08 03:42:01;;;;;;;6.60;4.38;;;22.60;56.80;;;;;;5034054;28;20217;-73
2023/07/08 03:44:26;;;;;;;4.28;3.85;;;22.70;56.90;;;;;;5024815;28;20234;-73
2023/07/08 03:46:52;;;;;;;5.38;4.13;;;22.60;56.90;;;;;;5045455;28;20179;-73
2023/07/08 03:49:23;;;;;;;4.93;4.40;;;22.70;57.00;;;;;;5025217;28;20189;-73
2023/07/08 03:51:53;;;;;;;4.50;4.10;;;22.60;56.90;;;;;;5016780;28;20245;-73
2023/07/08 03:54:22;;;;;;;5.75;4.43;;;22.70;57.00;;;;;;5038382;28;20213;-73
2023/07/08 03:56:47;;;;;;;5.22;4.72;;;22.70;57.00;;;;;;5036178;28;20273;-73
2023/07/08 03:59:15;;;;;;;4.82;4.32;;;22.60;56.90;;;;;;5014611;28;20215;-73
2023/07/08 04:01:41;;;;;;;4.80;4.30;;;22.70;57.00;;;;;;5021526;28;20228;-72
2023/07/08 04:04:14;;;;;;;5.20;4.68;;;22.60;57.00;;;;;;5020271;28;20214;-72
2023/07/08 04:06:40;;;;;;;5.80;4.85;;;22.60;56.90;;;;;;5030413;28;20180;-73
2023/07/08 04:09:06;;;;;;;5.28;4.57;;;22.60;57.00;;;;;;5010063;28;20192;-73
2023/07/08 04:11:32;;;;;;;5.25;4.68;;;22.60;56.90;;;;;;5016829;28;20249;-72
2023/07/08 04:13:58;;;;;;;4.90;4.45;;;22.60;57.00;;;;;;5016909;28;20199;-72
2023/07/08 04:16:36;;;;;;;5.22;4.72;;;22.60;57.10;;;;;;5015601;28;20618;-73
2023/07/08 04:19:02;;;;;;;6.10;4.55;;;22.70;57.20;;;;;;5040283;28;20225;-73
2023/07/08 04:21:30;;;;;;;5.25;4.75;;;22.60;57.10;;;;;;5017086;28;20195;-72
2023/07/08 04:23:55;;;;;;;4.93;3.83;;;22.60;57.20;;;;;;5016581;28;20211;-73
2023/07/08 04:26:21;;;;;;;5.38;4.82;;;22.60;57.20;;;;;;5030005;28;20252;-73
2023/07/08 04:28:47;;;;;;;5.10;4.60;;;22.60;57.20;;;;;;5018204;28;20193;-74
2023/07/08 04:31:13;;;;;;;5.75;4.65;;;22.60;57.20;;;;;;5021747;28;20188;-74
2023/07/08 04:33:39;;;;;;;5.22;4.72;;;22.60;57.30;;;;;;5024497;28;20601;-73
2023/07/08 04:36:13;;;;;;;5.75;4.68;;;22.60;57.30;;;;;;5024656;28;20199;-73
2023/07/08 04:38:40;;;;;;;4.70;4.30;;;22.60;57.30;;;;;;5032877;28;20253;-72
2023/07/08 04:41:06;;;;;;;5.55;4.55;;;22.60;57.40;;;;;;5016478;28;20218;-73
2023/07/08 04:43:32;;;;;;;4.90;4.40;;;22.60;57.40;;;;;;5016125;28;20278;-72
2023/07/08 04:45:58;;;;;;;4.68;4.28;;;22.60;57.40;;;;;;5016012;28;20234;-74
2023/07/08 04:48:25;;;;;;;5.40;4.70;;;22.60;57.40;;;;;;5032432;28;20198;-73
2023/07/08 04:50:52;;;;;;;5.78;4.50;;;22.60;57.40;;;;;;5016128;28;20568;-72
2023/07/08 04:53:18;;;;;;;4.88;4.38;;;22.60;57.50;;;;;;5033676;28;20195;-72
2023/07/08 04:55:52;;;;;;;5.43;4.80;;;22.60;57.50;;;;;;5039406;28;20207;-73
2023/07/08 04:58:18;;;;;;;4.93;4.43;;;22.60;57.50;;;;;;5029981;28;20188;-73
2023/07/08 05:00:44;;;;;;;5.28;4.47;;;22.60;57.50;;;;;;5029108;28;20225;-72
2023/07/08 05:03:10;;;;;;;5.47;4.55;;;22.60;58.20;;;;;;5012573;28;20274;-73
2023/07/08 05:05:36;;;;;;;5.25;4.40;;;22.60;57.70;;;;;;5007861;28;20357;-73
2023/07/08 05:08:02;;;;;;;4.43;4.03;;;22.60;57.70;;;;;;5015909;28;20190;-73
2023/07/08 05:10:28;;;;;;;5.50;4.47;;;22.60;57.70;;;;;;5016097;28;20225;-73
2023/07/08 05:12:54;;;;;;;5.15;4.65;;;22.60;57.70;;;;;;5015998;28;20218;-74
2023/07/08 05:15:20;;;;;;;6.03;4.40;;;22.60;57.70;;;;;;5015317;28;20218;-73
2023/07/08 05:17:45;;;;;;;5.18;4.32;;;22.60;57.80;;;;;;5015517;28;20206;-73
2023/07/08 05:20:14;;;;;;;5.05;4.55;;;22.60;57.80;;;;;;5015604;28;20678;-73
2023/07/08 05:22:42;;;;;;;4.82;4.30;;;22.60;58.00;;;;;;5032267;28;20269;-73
2023/07/08 05:25:09;;;;;;;4.93;4.43;;;22.60;58.10;;;;;;5031997;28;20211;-73
2023/07/08 05:27:35;;;;;;;4.43;3.95;;;22.60;58.10;;;;;;5015666;28;20206;-73
2023/07/08 05:30:07;;;;;;;4.13;3.67;;;22.60;58.10;;;;;;5014629;28;20213;-74
2023/07/08 05:32:33;;;;;;;5.32;4.40;;;22.60;58.10;;;;;;5015768;28;20195;-73
2023/07/08 05:34:59;;;;;;;5.05;4.40;;;22.60;58.10;;;;;;5043141;28;20319;-73
2023/07/08 05:37:27;;;;;;;5.32;4.65;;;22.60;58.10;;;;;;5033441;28;20278;-73
2023/07/08 05:39:53;;;;;;;4.80;4.30;;;22.60;58.30;;;;;;5017743;28;20234;-73
2023/07/08 05:42:21;;;;;;;4.50;3.95;;;22.60;58.30;;;;;;5034942;28;20197;-74
2023/07/08 05:44:48;;;;;;;5.03;4.15;;;22.60;58.30;;;;;;5041079;28;20219;-73
2023/07/08 05:47:14;;;;;;;5.90;4.90;;;22.60;58.30;;;;;;5014996;28;20187;-73
2023/07/08 05:49:41;;;;;;;5.15;4.35;;;22.60;58.30;;;;;;5031285;28;20206;-74
2023/07/08 05:52:10;;;;;;;4.90;4.38;;;22.60;58.30;;;;;;5031402;28;20187;-74
2023/07/08 05:54:40;;;;;;;5.35;4.68;;;22.60;58.30;;;;;;5014086;28;20211;-74
2023/07/08 05:57:09;;;;;;;5.00;4.50;;;22.60;58.30;;;;;;5032209;28;20611;-72
2023/07/08 05:59:38;;;;;;;4.90;4.40;;;22.60;58.40;;;;;;5022562;28;20253;-73
2023/07/08 06:02:06;;;;;;;5.40;4.90;;;22.60;58.50;;;;;;5030919;28;20187;-72
2023/07/08 06:04:32;;;;;;;5.97;4.95;;;22.60;58.50;;;;;;5030185;28;20220;-72
2023/07/08 06:06:58;;;;;;;5.40;4.60;;;22.60;58.50;;;;;;5014827;28;20202;-73
2023/07/08 06:09:24;;;;;;;4.80;4.35;;;22.60;58.70;;;;;;5022221;28;20662;-73
2023/07/08 06:11:50;;;;;;;5.78;5.10;;;22.60;58.70;;;;;;5014530;28;20194;-72
2023/07/08 06:14:15;;;;;;;5.85;4.65;;;22.60;58.80;;;;;;5014506;28;20635;-72
2023/07/08 06:16:41;;;;;;;6.07;4.70;;;22.60;58.90;;;;;;5039576;28;20198;-72
2023/07/08 06:19:08;;;;;;;4.95;4.50;;;22.60;58.80;;;;;;5011474;28;20243;-72
2023/07/08 06:21:34;;;;;;;4.75;4.35;;;22.60;58.70;;;;;;5045803;28;20191;-72
2023/07/08 06:24:00;;;;;;;4.78;4.05;;;22.60;58.80;;;;;;5037543;28;20241;-73
2023/07/08 06:26:26;;;;;;;6.05;4.40;;;22.60;58.90;;;;;;5016639;28;20224;-72
2023/07/08 06:28:51;;;;;;;5.00;4.50;;;22.60;58.90;;;;;;5014329;28;20194;-72
2023/07/08 06:31:17;;;;;;;6.05;4.43;;;22.50;58.80;;;;;;5020374;28;20222;-71
2023/07/08 06:33:43;;;;;;;5.10;4.50;;;22.60;58.90;;;;;;5021052;28;20185;-72
2023/07/08 06:36:09;;;;;;;4.43;4.03;;;22.60;58.80;;;;;;5014299;28;20572;-72
2023/07/08 06:38:34;;;;;;;5.03;4.53;;;22.60;58.90;;;;;;5011403;28;20206;-73
2023/07/08 06:41:00;;;;;;;5.07;4.57;;;22.60;58.90;;;;;;5010167;28;20612;-73
2023/07/08 06:43:26;;;;;;;5.28;4.32;;;22.60;58.90;;;;;;5008653;28;20179;-73
2023/07/08 06:46:04;;;;;;;4.40;4.00;;;22.60;58.90;;;;;;5011469;28;20195;-73
2023/07/08 06:48:30;;;;;;;5.30;3.97;;;22.60;58.90;;;;;;5028145;28;20244;-73
2023/07/08 06:50:57;;;;;;;5.90;4.60;;;22.60;59.00;;;;;;5012441;28;20227;-72
2023/07/08 06:53:23;;;;;;;4.63;4.22;;;22.60;59.00;;;;;;4997109;28;20196;-72
2023/07/08 06:55:49;;;;;;;4.90;4.40;;;22.60;58.90;;;;;;5003552;28;20204;-72
2023/07/08 06:58:15;;;;;;;5.28;4.20;;;22.60;58.80;;;;;;5013690;28;20180;-72
2023/07/08 07:00:44;;;;;;;5.68;4.30;;;22.60;58.80;;;;;;5015504;28;20214;-72
2023/07/08 07:03:11;;;;;;;5.07;4.15;;;22.70;59.00;;;;;;5028717;28;20200;-72
2023/07/08 07:05:38;;;;;;;4.63;4.22;;;22.70;59.10;;;;;;5013901;28;20295;-73
2023/07/08 07:08:05;;;;;;;5.55;4.40;;;22.70;59.10;;;;;;5021517;28;20655;-73
2023/07/08 07:10:30;;;;;;;5.43;4.80;;;22.70;59.00;;;;;;5028763;28;20199;-72
2023/07/08 07:12:56;;;;;;;5.40;3.95;;;22.70;59.00;;;;;;5030200;28;20198;-73
2023/07/08 07:15:22;;;;;;;4.93;4.00;;;22.70;59.00;;;;;;5010437;28;20226;-73
2023/07/08 07:17:48;;;;;;;4.72;4.28;;;22.70;59.10;;;;;;5030075;28;20183;-74
2023/07/08 07:20:14;;;;;;;5.22;4.43;;;22.70;59.10;;;;;;5026326;28;20212;-73
2023/07/08 07:22:40;;;;;;;4.90;4.40;;;22.70;59.00;;;;;;5013075;28;20209;-73
2023/07/08 07:25:06;;;;;;;4.65;4.25;;;22.70;59.00;;;;;;5029527;28;20243;-72
2023/07/08 07:27:32;;;;;;;5.25;4.07;;;22.70;59.00;;;;;;5018302;28;20188;-73
2023/07/08 07:30:00;;;;;;;4.47;4.07;;;22.70;59.00;;;;;;5004171;28;20227;-72
2023/07/08 07:32:27;;;;;;;5.32;4.10;;;22.70;59.00;;;;;;5009058;28;20200;-72
2023/07/08 07:34:53;;;;;;;4.97;4.47;;;22.70;59.00;;;;;;5013413;28;20219;-72
2023/07/08 07:37:22;;;;;;;4.85;4.38;;;22.70;59.10;;;;;;5013622;28;20195;-72
2023/07/08 07:39:48;;;;;;;4.82;4.20;;;22.70;59.10;;;;;;5022564;28;20286;-72
2023/07/08 07:42:16;;;;;;;5.28;4.47;;;22.70;59.10;;;;;;5013920;28;20184;-73
2023/07/08 07:44:42;;;;;;;4.45;4.05;;;22.70;59.00;;;;;;5046565;28;20206;-72
2023/07/08 07:47:09;;;;;;;4.82;4.32;;;22.70;59.00;;;;;;5013581;28;20195;-72
2023/07/08 07:49:36;;;;;;;4.93;4.40;;;22.70;59.00;;;;;;5030221;28;20282;-73
2023/07/08 07:52:02;;;;;;;5.15;4.40;;;22.70;59.00;;;;;;5030904;28;20281;-73
2023/07/08 07:54:28;;;;;;;4.57;3.97;;;22.70;59.00;;;;;;5017213;28;20218;-73
2023/07/08 07:56:54;;;;;;;5.65;4.53;;;22.70;59.00;;;;;;5017304;28;20599;-72
2023/07/08 07:59:21;;;;;;;6.57;4.20;;;22.70;59.10;;;;;;5017215;28;20222;-72
2023/07/08 08:01:46;;;;;;;5.55;4.28;;;22.70;59.10;;;;;;5016776;28;20191;-72
2023/07/08 08:04:12;;;;;;;4.50;3.88;;;22.70;59.00;;;;;;5016728;28;20202;-72
2023/07/08 08:06:39;;;;;;;5.15;4.07;;;22.70;59.00;;;;;;5049237;28;20215;-72
2023/07/08 08:09:06;;;;;;;5.45;4.60;;;22.70;59.10;;;;;;5017150;28;20205;-72
2023/07/08 08:11:33;;;;;;;4.30;3.90;;;22.70;59.10;;;;;;5031742;28;20715;-71
2023/07/08 08:14:00;;;;;;;5.43;4.38;;;22.70;59.10;;;;;;5043563;28;20748;-72
2023/07/08 08:16:26;;;;;;;4.97;3.90;;;22.70;59.10;;;;;;5033112;28;20195;-72
2023/07/08 08:18:52;;;;;;;5.05;4.15;;;22.70;59.10;;;;;;5016823;28;20685;-73
2023/07/08 08:21:18;;;;;;;4.78;4.00;;;22.70;59.10;;;;;;5017080;28;20282;-72
2023/07/08 08:23:43;;;;;;;6.03;4.32;;;22.80;59.20;;;;;;5019310;28;20209;-73
2023/07/08 08:26:09;;;;;;;5.95;4.00;;;22.70;59.10;;;;;;5022116;28;20195;-72
2023/07/08 08:28:35;;;;;;;4.60;4.03;;;22.80;59.20;;;;;;5022918;28;20217;-73
2023/07/08 08:31:01;;;;;;;4.30;3.90;;;22.80;59.20;;;;;;5016604;28;20194;-73
2023/07/08 08:33:27;;;;;;;4.50;4.10;;;22.80;59.20;;;;;;5024291;28;20211;-72
2023/07/08 08:35:52;;;;;;;5.35;4.30;;;22.80;59.20;;;;;;5016605;28;20286;-72
2023/07/08 08:38:18;;;;;;;5.00;4.10;;;22.80;59.10;;;;;;5029609;28;20197;-72
2023/07/08 08:40:44;;;;;;;4.57;4.18;;;22.80;59.10;;;;;;5016000;28;20243;-72
2023/07/08 08:43:17;;;;;;;4.65;4.18;;;22.80;59.10;;;;;;5029816;28;20192;-69
2023/07/08 08:46:01;;;;;;;4.05;3.65;;;22.80;59.10;;;;;;5015366;28;20694;-72
2023/07/08 08:48:32;;;;;;;4.22;3.83;;;22.80;59.10;;;;;;5015912;28;20270;-72
2023/07/08 08:51:15;;;;;;;4.25;3.85;;;22.80;59.10;;;;;;5016445;28;20179;-72
2023/07/08 08:53:42;;;;;;;4.35;3.75;;;22.80;59.20;;;;;;5011999;28;20184;-72
2023/07/08 08:56:26;;;;;;;6.03;4.38;;;22.80;59.10;;;;;;5025458;28;20282;-72
2023/07/08 08:59:19;;;;;;;5.18;3.72;;;22.80;59.20;;;;;;5008026;28;20286;-72
2023/07/08 09:01:46;;;;;;;4.57;4.13;;;22.80;59.20;;;;;;5015463;28;20187;-72
2023/07/08 09:04:21;;;;;;;4.40;4.00;;;22.80;59.20;;;;;;5026929;28;20289;-73
2023/07/08 09:06:47;;;;;;;3.72;3.30;;;22.80;59.20;;;;;;5032174;28;20186;-72
2023/07/08 09:09:29;;;;;;;4.18;3.53;;;22.80;59.20;;;;;;5032036;28;20206;-72
2023/07/08 09:12:09;;;;;;;4.25;3.85;;;22.80;59.20;;;;;;5024971;28;20626;-72
2023/07/08 09:14:38;;;;;;;4.03;3.63;;;22.80;59.20;;;;;;5030062;28;20215;-73
2023/07/08 09:17:34;;;;;;;4.88;4.10;;;22.80;59.30;;;;;;5012758;28;20227;-72
2023/07/08 09:20:28;;;;;;;4.18;3.65;;;22.80;59.40;;;;;;5025099;28;20226;-72
2023/07/08 09:23:23;;;;;;;3.88;3.38;;;22.80;59.40;;;;;;5018128;28;20196;-72
2023/07/08 09:26:07;;;;;;;4.38;3.70;;;22.80;59.40;;;;;;5015157;28;20211;-72
2023/07/08 09:28:43;;;;;;;4.20;3.80;;;22.80;59.40;;;;;;5043774;28;20187;-72
2023/07/08 09:31:23;;;;;;;4.20;3.85;;;22.80;59.40;;;;;;5037345;28;20202;-73
2023/07/08 09:34:23;;;;;;;4.25;3.85;;;22.80;59.40;;;;;;5015471;28;20209;-72
2023/07/08 09:36:51;;;;;;;4.90;4.10;;;22.80;59.40;;;;;;5031704;28;20202;-73
2023/07/08 09:39:20;;;;;;;3.83;3.08;;;22.80;59.50;;;;;;5028555;28;20237;-72
2023/07/08 09:41:49;;;;;;;4.07;3.67;;;22.80;59.50;;;;;;5010791;28;20199;-72
2023/07/08 09:44:29;;;;;;;5.38;3.45;;;22.80;59.60;;;;;;5029694;28;20216;-73
2023/07/08 09:46:58;;;;;;;3.92;3.53;;;22.80;59.60;;;;;;5007683;28;20189;-73
2023/07/08 09:49:34;;;;;;;4.18;3.53;;;22.80;59.50;;;;;;5031554;28;20194;-72
2023/07/08 09:52:04;;;;;;;4.82;3.78;;;22.80;59.50;;;;;;5036577;28;20195;-73
2023/07/08 09:54:32;;;;;;;4.22;3.28;;;22.80;59.50;;;;;;5011289;28;20234;-72
2023/07/08 09:57:09;;;;;;;4.50;3.50;;;22.80;59.60;;;;;;5027907;28;20192;-73
2023/07/08 09:59:45;;;;;;;3.95;3.60;;;22.80;59.50;;;;;;5030113;28;20210;-72
2023/07/08 10:02:43;;;;;;;3.85;3.33;;;22.80;59.60;;;;;;5008671;28;20191;-73
2023/07/08 10:05:21;;;;;;;4.13;3.72;;;22.80;59.60;;;;;;5005809;28;20315;-72
2023/07/08 10:07:51;;;;;;;4.10;3.35;;;22.90;59.60;;;;;;5022913;28;20195;-73
2023/07/08 10:10:26;;;;;;;3.50;3.20;;;22.90;59.60;;;;;;5030978;28;20190;-72
2023/07/08 10:13:04;;;;;;;4.15;3.47;;;22.90;59.70;;;;;;5031137;28;20201;-73
2023/07/08 10:15:47;;;;;;;5.32;3.58;;;22.90;59.60;;;;;;5014058;28;20211;-72
2023/07/08 10:18:25;;;;;;;3.85;3.03;;;22.90;59.60;;;;;;5030773;28;20195;-73
2023/07/08 10:21:53;;;;;;;3.40;3.10;;;22.90;59.60;;;;;;5012222;28;20208;-72
2023/07/08 10:24:39;;;;;;;3.80;3.40;;;22.90;59.80;;;;;;4987940;28;20219;-72
2023/07/08 10:27:30;;;;;;;5.05;3.45;;;22.90;59.70;;;;;;5007913;28;20271;-73
2023/07/08 10:30:31;;;;;;;3.95;3.20;;;22.90;59.60;;;;;;5013675;28;20207;-73
2023/07/08 10:33:45;;;;;;;4.75;3.30;;;22.90;59.60;;;;;;4987323;28;20566;-73
2023/07/08 10:36:50;;;;;;;4.32;3.60;;;22.90;59.60;;;;;;5013045;28;20210;-72
2023/07/08 10:39:46;;;;;;;4.18;3.22;;;22.90;60.40;;;;;;5025799;28;20226;-73
2023/07/08 10:42:46;;;;;;;4.65;3.13;;;22.90;59.60;;;;;;5007453;28;20183;-73
2023/07/08 10:45:46;;;;;;;4.93;3.72;;;22.90;59.80;;;;;;5010908;28;20211;-73
2023/07/08 10:48:51;;;;;;;4.40;3.20;;;22.90;59.80;;;;;;5021624;28;20195;-73
2023/07/08 10:51:59;;;;;;;4.85;3.45;;;22.90;59.80;;;;;;5008683;28;20221;-72
2023/07/08 10:54:30;;;;;;;3.67;3.17;;;22.90;59.90;;;;;;4989702;28;20224;-72
2023/07/08 10:57:52;;;;;;;3.80;3.40;;;22.90;60.10;;;;;;5003044;28;20188;-73
2023/07/08 11:01:04;;;;;;;3.42;3.10;;;22.90;60.00;;;;;;5025005;28;20211;-72
2023/07/08 11:03:55;;;;;;;3.30;2.97;;;22.90;60.00;;;;;;4962043;28;20197;-73
2023/07/08 11:06:34;;;;;;;3.53;3.00;;;22.90;59.90;;;;;;5013993;28;20261;-72
2023/07/08 11:09:05;;;;;;;4.40;2.95;;;22.90;59.90;;;;;;5021720;28;20282;-72
2023/07/08 11:11:51;;;;;;;3.08;2.78;;;22.90;59.90;;;;;;5014296;28;20650;-73
2023/07/08 11:14:27;;;;;;;4.07;3.22;;;22.90;60.00;;;;;;5011086;28;20211;-72
2023/07/08 11:17:27;;;;;;;4.35;3.03;;;22.90;59.90;;;;;;5014287;28;20289;-73
2023/07/08 11:20:26;;;;;;;4.18;3.78;;;23.00;60.00;;;;;;5013826;28;20242;-73
2023/07/08 11:23:19;;;;;;;5.30;4.75;;;23.00;60.00;;;;;;5010203;28;20199;-72
2023/07/08 11:25:48;;;;;;;5.85;5.13;;;22.90;60.10;;;;;;5045347;28;20301;-72
2023/07/08 11:28:21;;;;;;;5.70;4.45;;;22.90;59.90;;;;;;5038614;28;20182;-72
2023/07/08 11:30:51;;;;;;;5.78;5.15;;;22.90;60.10;;;;;;5021313;28;20199;-72
2023/07/08 11:33:23;;;;;;;11.68;8.05;;;22.90;60.20;;;;;;5039834;28;20235;-71
2023/07/08 11:35:58;;;;;;;6.97;6.28;;;23.00;60.10;;;;;;5033709;28;20218;-70
2023/07/08 11:38:25;;;;;;;5.97;5.07;;;23.00;60.50;;;;;;5030920;28;20199;-71
2023/07/08 11:40:56;;;;;;;6.70;6.05;;;22.90;60.60;;;;;;5017253;28;20585;-72
2023/07/08 11:43:34;;;;;;;6.68;5.97;;;22.90;60.70;;;;;;5017566;28;20195;-71
2023/07/08 11:46:06;;;;;;;6.20;5.70;;;22.90;60.40;;;;;;5017569;28;20191;-72
2023/07/08 11:48:44;;;;;;;6.75;6.05;;;22.90;60.60;;;;;;5017596;28;20192;-72
2023/07/08 11:51:17;;;;;;;6.90;6.00;;;23.00;60.50;;;;;;5013984;28;20196;-71
2023/07/08 11:54:03;;;;;;;6.68;6.07;;;23.00;60.40;;;;;;5021118;28;20188;-72
2023/07/08 11:56:55;;;;;;;5.20;4.70;;;22.90;60.30;;;;;;5020033;28;20385;-72
2023/07/08 11:59:25;;;;;;;6.80;6.05;;;23.00;60.60;;;;;;5016933;28;20219;-72
2023/07/08 12:01:50;;;;;;;4.88;4.38;;;22.90;60.80;;;;;;5033269;28;20191;-72
2023/07/08 12:04:51;;;;;;;6.30;5.70;;;23.00;60.60;;;;;;5016928;28;20295;-72
2023/07/08 12:07:48;;;;;;;6.28;5.68;;;23.00;60.70;;;;;;5017037;28;20192;-72
2023/07/08 12:10:40;;;;;;;6.53;5.93;;;23.00;60.50;;;;;;5032421;28;20234;-72
2023/07/08 12:13:21;;;;;;;6.47;5.88;;;23.00;60.50;;;;;;5006655;28;20202;-72
2023/07/08 12:15:47;;;;;;;6.63;5.88;;;23.00;60.70;;;;;;5014897;28;20300;-71
2023/07/08 12:18:32;;;;;;;6.38;5.78;;;23.00;60.70;;;;;;5016616;28;20635;-71
2023/07/08 12:21:03;;;;;;;7.18;6.25;;;23.00;60.80;;;;;;5024742;28;20183;-72
2023/07/08 12:23:30;;;;;;;6.68;6.00;;;23.00;60.70;;;;;;5029807;28;20192;-71
2023/07/08 12:25:57;;;;;;;6.28;5.68;;;23.00;60.60;;;;;;5023605;28;20215;-72
2023/07/08 12:28:24;;;;;;;6.43;5.78;;;23.00;61.10;;;;;;5016322;28;20187;-71
2023/07/08 12:30:51;;;;;;;6.75;6.07;;;23.00;60.60;;;;;;5016764;28;20195;-72
2023/07/08 12:33:32;;;;;;;6.50;5.70;;;23.00;60.50;;;;;;5037804;28;20191;-71
2023/07/08 12:36:01;;;;;;;6.55;5.45;;;23.00;60.70;;;;;;5016095;28;20191;-71
2023/07/08 12:38:38;;;;;;;5.85;5.25;;;23.00;60.70;;;;;;5016254;28;20191;-72
2023/07/08 12:41:22;;;;;;;5.30;4.80;;;23.00;60.60;;;;;;5020104;28;20195;-71
2023/07/08 12:43:48;;;;;;;6.13;5.43;;;23.00;60.70;;;;;;5033046;28;20220;-71
2023/07/08 12:46:18;;;;;;;6.30;5.70;;;23.00;60.80;;;;;;5032864;28;20223;-71
2023/07/08 12:48:44;;;;;;;5.95;5.45;;;23.00;60.80;;;;;;5032946;28;20194;-72
2023/07/08 12:51:20;;;;;;;5.28;4.80;;;23.00;60.70;;;;;;5042150;28;20281;-72
2023/07/08 12:53:47;;;;;;;5.50;5.00;;;23.00;61.00;;;;;;5016299;28;20199;-71
2023/07/08 12:56:15;;;;;;;5.57;5.07;;;23.00;60.70;;;;;;5032808;28;20242;-72
2023/07/08 12:58:46;;;;;;;5.72;5.13;;;23.00;60.70;;;;;;5016011;28;20210;-72
2023/07/08 13:01:22;;;;;;;5.53;5.00;;;23.00;60.70;;;;;;5015593;28;20692;-72
2023/07/08 13:03:59;;;;;;;5.60;5.00;;;23.00;60.60;;;;;;5016369;28;20203;-71
2023/07/08 13:06:30;;;;;;;5.50;5.00;;;23.00;60.50;;;;;;5043538;28;20187;-71
2023/07/08 13:09:25;;;;;;;5.80;5.20;;;23.00;60.60;;;;;;5017127;28;20191;-72
2023/07/08 13:11:55;;;;;;;5.97;5.15;;;23.00;60.60;;;;;;5020889;28;20200;-72
2023/07/08 13:14:24;;;;;;;5.55;4.63;;;23.10;60.70;;;;;;5032232;28;20215;-71